createdAt,value
2023-02-16T00:03:34.032Z,90.72
2023-02-16T00:08:34.724Z,90.41
2023-02-16T00:13:35.468Z,90.52
2023-02-16T00:18:36.177Z,91.28
2023-02-16T00:23:36.963Z,91.45
2023-02-16T00:28:37.730Z,90.83
2023-02-16T00:33:38.399Z,90.83
2023-02-16T00:38:39.123Z,90.62
2023-02-16T00:43:39.865Z,90.41
2023-02-16T00:48:40.557Z,90.52
2023-02-16T00:53:41.282Z,90.93
2023-02-16T00:58:42.071Z,90.52
2023-02-16T01:03:42.760Z,90.97
2023-02-16T01:08:43.484Z,91.35
2023-02-16T01:13:44.229Z,91.18
2023-02-16T01:18:44.920Z,91.80
2023-02-16T01:23:45.708Z,90.62
2023-02-16T01:28:46.448Z,90.56
2023-02-16T01:33:47.144Z,90.97
2023-02-16T01:38:47.868Z,92.32
2023-02-16T01:43:48.681Z,92.74
2023-02-16T01:48:49.344Z,92.94
2023-02-16T01:53:50.066Z,93.05
2023-02-16T01:58:50.800Z,92.94
2023-02-16T02:03:51.493Z,93.16
2023-02-16T02:08:52.213Z,93.26
2023-02-16T02:13:52.965Z,93.32
2023-02-16T02:18:53.629Z,93.68
2023-02-16T02:23:54.362Z,93.78
2023-02-16T02:28:55.146Z,93.78
2023-02-16T02:33:55.803Z,94.09
2023-02-16T02:38:56.512Z,94.51
2023-02-16T02:43:57.265Z,94.51
2023-02-16T02:48:57.954Z,94.61
2023-02-16T02:53:58.667Z,95.03
2023-02-16T02:58:59.403Z,95.13
2023-02-16T03:04:00.101Z,95.38
2023-02-16T03:09:00.822Z,95.65
2023-02-16T03:14:01.662Z,95.44
2023-02-16T03:19:02.325Z,95.34
2023-02-16T03:24:03.038Z,95.44
2023-02-16T03:29:03.789Z,95.44
2023-02-16T03:34:04.492Z,95.34
2023-02-16T03:39:05.212Z,95.34
2023-02-16T03:44:05.959Z,95.54
2023-02-16T03:49:06.662Z,95.79
2023-02-16T03:54:07.504Z,95.90
2023-02-16T03:59:08.238Z,95.86
2023-02-16T04:04:08.968Z,95.54
2023-02-16T04:09:09.685Z,95.44
2023-02-16T04:14:10.464Z,95.03
2023-02-16T04:19:11.126Z,94.71
2023-02-16T04:24:11.842Z,94.20
2023-02-16T04:29:12.559Z,93.88
2023-02-16T04:34:20.421Z,93.41
2023-02-16T04:39:14.203Z,93.30
2023-02-16T04:44:14.938Z,92.78
2023-02-16T04:49:15.689Z,92.78
2023-02-16T04:54:16.428Z,92.93
2023-02-16T04:59:17.155Z,93.14
2023-02-16T05:04:17.869Z,92.93
2023-02-16T05:09:18.569Z,92.82
2023-02-16T05:14:19.296Z,92.61
2023-02-16T05:19:20.024Z,92.51
2023-02-16T05:24:20.786Z,92.30
2023-02-16T05:29:21.456Z,92.10
2023-02-16T05:34:22.214Z,92.10
2023-02-16T05:39:22.982Z,91.99
2023-02-16T05:44:24.023Z,91.99
2023-02-16T05:49:24.375Z,91.99
2023-02-16T05:54:25.072Z,91.78
2023-02-16T05:59:25.714Z,91.78
2023-02-16T06:04:26.369Z,91.89
2023-02-16T06:09:27.145Z,91.06
2023-02-16T06:14:27.834Z,90.95
2023-02-16T06:19:28.497Z,90.95
2023-02-16T06:24:29.773Z,90.64
2023-02-16T06:29:29.920Z,90.64
2023-02-16T06:34:30.608Z,90.44
2023-02-16T06:39:31.291Z,90.12
2023-02-16T06:44:31.974Z,90.02
2023-02-16T06:49:32.644Z,89.50
2023-02-16T06:54:33.410Z,89.39
2023-02-16T06:59:34.040Z,89.29
2023-02-16T07:04:34.753Z,88.84
2023-02-16T07:09:35.440Z,88.84
2023-02-16T07:14:36.118Z,88.17
2023-02-16T07:19:36.803Z,87.76
2023-02-16T07:24:37.523Z,87.86
2023-02-16T07:29:38.253Z,87.65
2023-02-16T07:34:38.942Z,87.09
2023-02-16T07:39:39.586Z,86.57
2023-02-16T07:44:40.257Z,86.05
2023-02-16T07:49:41.017Z,86.12
2023-02-16T07:54:41.713Z,85.35
2023-02-16T07:59:42.367Z,84.07
2023-02-16T08:04:43.034Z,83.93
2023-02-16T08:09:43.695Z,83.06
2023-02-16T08:14:44.387Z,83.26
2023-02-16T08:19:45.054Z,81.51
2023-02-16T08:24:45.696Z,81.92
2023-02-16T08:29:46.398Z,81.92
2023-02-16T08:34:47.070Z,81.47
2023-02-16T08:39:47.725Z,81.33
2023-02-16T08:44:48.486Z,80.19
2023-02-16T08:49:49.209Z,79.12
2023-02-16T08:54:49.901Z,78.98
2023-02-16T08:59:50.546Z,78.67
2023-02-16T09:04:51.208Z,77.70
2023-02-16T09:09:51.880Z,77.04
2023-02-16T09:14:52.579Z,76.64
2023-02-16T09:19:53.227Z,76.08
2023-02-16T09:24:53.903Z,75.53
2023-02-16T09:29:54.833Z,74.46
2023-02-16T09:34:55.498Z,74.15
2023-02-16T09:39:56.160Z,73.78
2023-02-16T09:44:56.846Z,73.26
2023-02-16T09:49:57.490Z,72.37
2023-02-16T09:54:58.216Z,71.65
2023-02-16T09:59:58.863Z,71.00
2023-02-16T10:04:59.499Z,70.56
2023-02-16T10:10:00.171Z,69.29
2023-02-16T10:15:00.855Z,68.37
2023-02-16T10:20:01.507Z,67.51
2023-02-16T10:25:02.201Z,67.82
2023-02-16T10:30:02.949Z,67.61
2023-02-16T10:35:10.623Z,67.71
2023-02-16T10:40:04.286Z,67.17
2023-02-16T10:45:05.005Z,66.31
2023-02-16T10:50:05.619Z,65.36
2023-02-16T10:55:06.289Z,64.13
2023-02-16T11:00:07.222Z,65.23
2023-02-16T11:05:07.838Z,64.51
2023-02-16T11:10:08.504Z,64.20
2023-02-16T11:15:09.199Z,63.66
2023-02-16T11:20:09.850Z,63.87
2023-02-16T11:25:10.607Z,64.69
2023-02-16T11:30:11.351Z,63.25
2023-02-16T11:35:11.972Z,63.56
2023-02-16T11:40:12.622Z,63.84
2023-02-16T11:45:13.287Z,62.51
2023-02-16T11:50:14.073Z,62.37
2023-02-16T11:55:14.722Z,62.68
2023-02-16T12:00:15.416Z,62.45
2023-02-16T12:05:16.240Z,61.01
2023-02-16T12:10:16.872Z,61.29
2023-02-16T12:15:17.545Z,60.60
2023-02-16T12:20:18.198Z,60.47
2023-02-16T12:25:18.853Z,60.47
2023-02-16T12:30:19.551Z,60.75
2023-02-16T12:35:20.192Z,60.14
2023-02-16T12:40:20.863Z,60.24
2023-02-16T12:45:21.540Z,59.42
2023-02-16T12:50:22.205Z,59.83
2023-02-16T12:55:22.904Z,60.44
2023-02-16T13:00:23.585Z,60.55
2023-02-16T13:05:24.214Z,60.03
2023-02-16T13:10:24.875Z,59.91
2023-02-16T13:15:25.571Z,59.30
2023-02-16T13:20:26.189Z,59.57
2023-02-16T13:25:26.950Z,58.75
2023-02-16T13:30:27.741Z,58.52
2023-02-16T13:35:28.463Z,58.73
2023-02-16T13:40:29.145Z,58.83
2023-02-16T13:45:29.845Z,58.93
2023-02-16T13:50:30.486Z,58.62
2023-02-16T13:55:31.159Z,59.44
2023-02-16T14:00:31.838Z,59.67
2023-02-16T14:05:32.469Z,59.88
2023-02-16T14:10:33.146Z,59.47
2023-02-16T14:15:33.863Z,59.95
2023-02-16T14:20:34.535Z,60.05
2023-02-16T14:25:35.178Z,59.75
2023-02-16T14:30:35.838Z,59.85
2023-02-16T14:35:36.513Z,60.16
2023-02-16T14:40:37.220Z,60.36
2023-02-16T14:45:37.898Z,60.28
2023-02-16T14:50:38.545Z,60.69
2023-02-16T14:55:39.206Z,60.49
2023-02-16T15:00:39.883Z,60.69
2023-02-16T15:05:40.542Z,60.69
2023-02-16T15:10:41.239Z,60.60
2023-02-16T15:15:41.931Z,60.69
2023-02-16T15:20:42.589Z,60.80
2023-02-16T15:25:43.233Z,61.41
2023-02-16T15:30:43.910Z,61.41
2023-02-16T15:35:44.564Z,61.24
2023-02-16T15:40:45.269Z,61.75
2023-02-16T15:45:45.929Z,61.75
2023-02-16T15:50:46.610Z,61.95
2023-02-16T15:55:47.298Z,62.39
2023-02-16T16:00:48.035Z,62.29
2023-02-16T16:05:48.650Z,62.39
2023-02-16T16:10:49.311Z,62.52
2023-02-16T16:15:50.000Z,63.03
2023-02-16T16:20:50.682Z,63.34
2023-02-16T16:25:51.347Z,63.34
2023-02-16T16:30:52.078Z,63.78
2023-02-16T16:35:52.741Z,63.88
2023-02-16T16:40:53.472Z,63.57
2023-02-16T16:45:54.149Z,63.78
2023-02-16T16:50:54.783Z,64.01
2023-02-16T16:55:55.505Z,64.12
2023-02-16T17:00:56.238Z,64.53
2023-02-16T17:05:57.028Z,65.04
2023-02-16T17:10:58.821Z,65.24
2023-02-16T17:16:07.033Z,65.27
2023-02-16T17:20:59.355Z,65.37
2023-02-16T17:26:00.091Z,65.58
2023-02-16T17:31:00.802Z,65.99
2023-02-16T17:36:01.616Z,66.40
2023-02-16T17:41:02.363Z,66.09
2023-02-16T17:46:04.521Z,66.19
2023-02-16T17:51:04.001Z,66.50
2023-02-16T17:56:05.124Z,66.30
2023-02-16T18:01:05.616Z,66.50
2023-02-16T18:06:07.614Z,66.37
2023-02-16T18:11:06.918Z,66.57
2023-02-16T18:16:08.164Z,66.81
2023-02-16T18:21:08.670Z,66.91
2023-02-16T18:26:09.397Z,67.22
2023-02-16T18:31:10.239Z,67.43
2023-02-16T18:36:11.008Z,67.22
2023-02-16T18:41:11.726Z,67.32
2023-02-16T18:46:12.647Z,67.43
2023-02-16T18:51:13.367Z,67.63
2023-02-16T18:56:14.141Z,67.86
2023-02-16T19:01:14.963Z,68.07
2023-02-16T19:06:15.752Z,68.07
2023-02-16T19:11:16.495Z,68.38
2023-02-16T19:16:17.315Z,68.79
2023-02-16T19:21:17.983Z,68.27
2023-02-16T19:26:18.716Z,68.17
2023-02-16T19:31:19.699Z,68.38
2023-02-16T19:36:19.988Z,68.07
2023-02-16T19:41:20.705Z,67.86
2023-02-16T19:46:21.447Z,67.66
2023-02-16T19:51:22.250Z,67.90
2023-02-16T19:56:22.974Z,67.79
2023-02-16T20:01:23.786Z,67.79
2023-02-16T20:06:24.671Z,67.86
2023-02-16T20:11:25.466Z,67.56
2023-02-16T20:16:26.320Z,67.97
2023-02-16T20:21:27.061Z,67.56
2023-02-16T20:26:27.794Z,67.76
2023-02-16T20:31:28.672Z,67.35
2023-02-16T20:36:29.402Z,67.49
2023-02-16T20:41:30.135Z,67.90
2023-02-16T20:46:31.978Z,68.72
2023-02-16T20:51:31.691Z,69.74
2023-02-16T20:56:32.403Z,70.26
2023-02-16T21:01:33.176Z,71.80
2023-02-16T21:06:33.883Z,72.34
2023-02-16T21:11:34.599Z,73.27
2023-02-16T21:16:35.495Z,72.55
2023-02-16T21:21:36.244Z,72.14
2023-02-16T21:26:36.949Z,72.75
2023-02-16T21:31:37.764Z,72.65
2023-02-16T21:36:38.494Z,72.55
2023-02-16T21:41:39.313Z,72.58
2023-02-16T21:46:40.037Z,72.89
2023-02-16T21:51:40.774Z,73.19
2023-02-16T21:56:41.501Z,73.40
2023-02-16T22:01:42.241Z,73.61
2023-02-16T22:06:42.969Z,74.02
2023-02-16T22:11:43.694Z,73.61
2023-02-16T22:16:44.481Z,74.22
2023-02-16T22:21:45.216Z,74.36
2023-02-16T22:26:45.941Z,74.57
2023-02-16T22:31:46.905Z,75.38
2023-02-16T22:36:47.625Z,75.08
2023-02-16T22:41:48.367Z,74.87
2023-02-16T22:46:49.094Z,75.18
2023-02-16T22:51:49.862Z,75.59
2023-02-16T22:56:50.634Z,75.70
2023-02-16T23:01:51.341Z,76.10
2023-02-16T23:06:53.007Z,76.21
2023-02-16T23:11:52.733Z,76.42
2023-02-16T23:16:53.585Z,76.82
2023-02-16T23:21:54.344Z,77.23
2023-02-16T23:26:55.066Z,77.27
2023-02-16T23:32:02.830Z,77.37
2023-02-16T23:36:56.508Z,77.65
2023-02-16T23:41:57.246Z,77.75
2023-02-16T23:46:57.973Z,77.65
2023-02-16T23:51:58.785Z,77.75
2023-02-16T23:56:59.452Z,78.09
